createdAt,value
2022-12-01T00:00:31.860Z,7.57
2022-12-01T00:01:31.852Z,7.40
2022-12-01T00:02:31.957Z,7.38
2022-12-01T00:03:31.832Z,7.42
2022-12-01T00:04:31.819Z,7.42
2022-12-01T00:05:31.803Z,7.50
2022-12-01T00:06:31.794Z,7.42
2022-12-01T00:07:31.840Z,7.40
2022-12-01T00:08:31.776Z,7.50
2022-12-01T00:09:31.762Z,7.42
2022-12-01T00:10:31.754Z,7.32
2022-12-01T00:11:31.736Z,7.39
2022-12-01T00:12:31.734Z,7.36
2022-12-01T00:13:31.715Z,7.36
2022-12-01T00:14:31.702Z,7.39
2022-12-01T00:15:31.693Z,7.33
2022-12-01T00:16:31.747Z,7.36
2022-12-01T00:17:31.667Z,7.33
2022-12-01T00:18:31.652Z,7.39
2022-12-01T00:19:31.639Z,7.38
2022-12-01T00:20:31.632Z,7.39
2022-12-01T00:21:31.628Z,7.32
2022-12-01T00:22:31.612Z,7.38
2022-12-01T00:23:31.599Z,7.31
2022-12-01T00:24:31.603Z,7.35
2022-12-01T00:25:31.578Z,7.18
2022-12-01T00:26:31.563Z,7.21
2022-12-01T00:27:31.552Z,7.18
2022-12-01T00:28:31.540Z,7.17
2022-12-01T00:29:31.526Z,7.15
2022-12-01T00:30:31.516Z,7.13
2022-12-01T00:31:31.533Z,7.18
2022-12-01T00:32:31.491Z,7.15
2022-12-01T00:33:31.484Z,7.11
2022-12-01T00:34:31.470Z,7.13
2022-12-01T00:35:31.461Z,7.14
2022-12-01T00:36:31.449Z,7.13
2022-12-01T00:37:31.439Z,7.15
2022-12-01T00:38:31.427Z,7.15
2022-12-01T00:39:31.411Z,7.10
2022-12-01T00:40:31.402Z,7.07
2022-12-01T00:41:31.391Z,7.03
2022-12-01T00:42:31.376Z,6.97
2022-12-01T00:43:31.364Z,7.06
2022-12-01T00:44:31.352Z,7.02
2022-12-01T00:45:31.365Z,7.11
2022-12-01T00:46:31.390Z,7.02
2022-12-01T00:47:31.321Z,7.06
2022-12-01T00:48:31.309Z,7.05
2022-12-01T00:49:31.295Z,7.05
2022-12-01T00:50:31.285Z,7.02
2022-12-01T00:51:31.273Z,7.00
2022-12-01T00:52:31.263Z,7.10
2022-12-01T00:53:31.250Z,7.02
2022-12-01T00:54:31.236Z,6.95
2022-12-01T00:55:31.226Z,6.97
2022-12-01T00:56:31.216Z,6.96
2022-12-01T00:57:31.202Z,7.00
2022-12-01T00:58:31.194Z,6.93
2022-12-01T00:59:31.181Z,6.88
2022-12-01T01:00:31.167Z,6.87
2022-12-01T01:01:31.212Z,6.79
2022-12-01T01:02:31.165Z,6.82
2022-12-01T01:03:31.135Z,6.79
2022-12-01T01:04:31.123Z,6.77
2022-12-01T01:05:31.115Z,6.77
2022-12-01T01:06:31.095Z,6.75
2022-12-01T01:07:31.129Z,6.69
2022-12-01T01:08:31.074Z,6.66
2022-12-01T01:09:31.070Z,6.69
2022-12-01T01:10:31.052Z,6.69
2022-12-01T01:11:31.039Z,6.69
2022-12-01T01:12:31.029Z,6.69
2022-12-01T01:13:31.014Z,6.67
2022-12-01T01:14:31.003Z,6.70
2022-12-01T01:15:30.992Z,6.56
2022-12-01T01:16:31.021Z,6.56
2022-12-01T01:17:30.976Z,6.62
2022-12-01T01:18:30.956Z,6.56
2022-12-01T01:19:30.945Z,6.60
2022-12-01T01:20:30.938Z,6.52
2022-12-01T01:21:30.924Z,6.66
2022-12-01T01:22:30.906Z,6.59
2022-12-01T01:23:30.900Z,6.70
2022-12-01T01:24:30.892Z,6.64
2022-12-01T01:25:30.878Z,6.64
2022-12-01T01:26:30.861Z,6.59
2022-12-01T01:27:30.856Z,6.67
2022-12-01T01:28:30.844Z,6.54
2022-12-01T01:29:30.827Z,6.54
2022-12-01T01:30:30.872Z,6.54
2022-12-01T01:31:30.810Z,6.54
2022-12-01T01:32:30.796Z,6.60
2022-12-01T01:33:30.782Z,6.52
2022-12-01T01:34:30.764Z,6.44
2022-12-01T01:35:30.754Z,6.46
2022-12-01T01:36:30.747Z,6.59
2022-12-01T01:37:30.747Z,6.45
2022-12-01T01:38:30.732Z,6.44
2022-12-01T01:39:30.714Z,6.52
2022-12-01T01:40:30.704Z,6.56
2022-12-01T01:41:30.689Z,6.56
2022-12-01T01:42:30.671Z,6.56
2022-12-01T01:43:30.667Z,6.44
2022-12-01T01:44:30.656Z,6.52
2022-12-01T01:45:30.657Z,6.54
2022-12-01T01:46:30.689Z,6.49
2022-12-01T01:47:30.614Z,6.57
2022-12-01T01:48:30.603Z,6.49
2022-12-01T01:49:30.595Z,6.59
2022-12-01T01:50:30.578Z,6.57
2022-12-01T01:51:30.569Z,6.52
2022-12-01T01:52:30.565Z,6.54
2022-12-01T01:53:30.549Z,6.46
2022-12-01T01:54:30.533Z,6.41
2022-12-01T01:55:30.524Z,6.42
2022-12-01T01:56:30.513Z,6.44
2022-12-01T01:57:30.499Z,6.42
2022-12-01T01:58:30.489Z,6.39
2022-12-01T01:59:30.474Z,6.44
2022-12-01T02:00:30.465Z,6.41
2022-12-01T02:01:30.491Z,6.46
2022-12-01T02:02:30.486Z,6.42
2022-12-01T02:03:30.426Z,6.46
2022-12-01T02:04:30.421Z,6.41
2022-12-01T02:05:30.410Z,6.41
2022-12-01T02:06:30.390Z,6.45
2022-12-01T02:07:30.421Z,6.46
2022-12-01T02:08:30.382Z,6.44
2022-12-01T02:09:30.364Z,6.42
2022-12-01T02:10:30.348Z,6.45
2022-12-01T02:11:30.333Z,6.48
2022-12-01T02:12:30.322Z,6.33
2022-12-01T02:13:30.310Z,6.33
2022-12-01T02:14:30.296Z,6.33
2022-12-01T02:15:30.285Z,6.36
2022-12-01T02:16:30.320Z,6.33
2022-12-01T02:17:30.261Z,6.45
2022-12-01T02:18:30.269Z,6.41
2022-12-01T02:19:30.233Z,6.30
2022-12-01T02:20:30.223Z,6.27
2022-12-01T02:21:30.215Z,6.35
2022-12-01T02:22:30.201Z,6.31
2022-12-01T02:23:30.186Z,6.28
2022-12-01T02:24:30.177Z,6.38
2022-12-01T02:25:30.161Z,6.33
2022-12-01T02:26:30.161Z,6.36
2022-12-01T02:27:30.140Z,6.36
2022-12-01T02:28:30.131Z,6.36
2022-12-01T02:29:30.118Z,6.30
2022-12-01T02:30:30.147Z,6.46
2022-12-01T02:31:30.093Z,6.39
2022-12-01T02:32:30.084Z,6.31
2022-12-01T02:33:30.090Z,6.33
2022-12-01T02:34:30.062Z,6.31
2022-12-01T02:35:30.044Z,6.33
2022-12-01T02:36:30.035Z,6.31
2022-12-01T02:37:30.025Z,6.39
2022-12-01T02:38:30.011Z,6.31
2022-12-01T02:39:29.998Z,6.33
2022-12-01T02:40:29.989Z,6.19
2022-12-01T02:41:29.975Z,6.33
2022-12-01T02:42:29.962Z,6.33
2022-12-01T02:43:29.956Z,6.44
2022-12-01T02:44:29.943Z,6.35
2022-12-01T02:45:29.932Z,6.35
2022-12-01T02:46:29.977Z,6.31
2022-12-01T02:47:29.904Z,6.30
2022-12-01T02:48:29.891Z,6.30
2022-12-01T02:49:29.881Z,6.24
2022-12-01T02:50:29.861Z,6.36
2022-12-01T02:51:29.854Z,6.30
2022-12-01T02:52:29.842Z,6.36
2022-12-01T02:55:01.577Z,6.30
2022-12-01T02:56:01.569Z,6.31
2022-12-01T02:58:05.486Z,6.31
2022-12-01T02:59:05.473Z,6.28
2022-12-01T03:01:09.425Z,6.28
2022-12-01T03:02:09.433Z,6.26
2022-12-01T03:04:13.323Z,6.28
2022-12-01T03:05:13.304Z,6.22
2022-12-01T03:07:17.248Z,6.31
2022-12-01T03:08:17.222Z,6.19
2022-12-01T03:10:21.166Z,6.26
2022-12-01T03:11:21.147Z,6.31
2022-12-01T03:13:25.081Z,6.24
2022-12-01T03:14:25.066Z,6.16
2022-12-01T03:16:29.064Z,6.30
2022-12-01T03:17:28.983Z,6.28
2022-12-01T03:19:32.926Z,6.26
2022-12-01T03:20:32.901Z,6.28
2022-12-01T03:22:36.847Z,6.30
2022-12-01T03:23:36.825Z,6.35
2022-12-01T03:25:40.766Z,6.38
2022-12-01T03:26:40.742Z,6.35
2022-12-01T03:28:44.679Z,6.31
2022-12-01T03:29:44.658Z,6.35
2022-12-01T03:31:48.680Z,6.30
2022-12-01T03:32:48.579Z,6.39
2022-12-01T03:34:41.439Z,6.26
2022-12-01T03:35:41.425Z,6.20
2022-12-01T03:37:45.367Z,6.30
2022-12-01T03:38:45.355Z,6.27
2022-12-01T03:40:49.287Z,6.28
2022-12-01T03:41:49.262Z,6.38
2022-12-01T03:43:53.201Z,6.22
2022-12-01T03:44:53.181Z,6.26
2022-12-01T03:46:57.125Z,6.30
2022-12-01T03:47:57.102Z,6.19
2022-12-01T03:50:01.039Z,6.28
2022-12-01T03:51:01.028Z,6.26
2022-12-01T03:53:04.968Z,6.35
2022-12-01T03:54:04.946Z,6.28
2022-12-01T03:56:08.890Z,6.26
2022-12-01T03:57:08.863Z,6.30
2022-12-01T03:59:12.805Z,6.27
2022-12-01T04:00:12.787Z,6.22
2022-12-01T04:02:16.733Z,6.26
2022-12-01T04:03:16.822Z,6.19
2022-12-01T04:05:09.576Z,6.19
2022-12-01T04:06:09.558Z,6.20
2022-12-01T04:08:13.497Z,6.27
2022-12-01T04:09:13.475Z,6.20
2022-12-01T04:11:17.409Z,6.22
2022-12-01T04:12:17.411Z,6.30
2022-12-01T04:14:21.331Z,6.17
2022-12-01T04:15:21.312Z,6.14
2022-12-01T04:17:25.253Z,6.22
2022-12-01T04:18:25.233Z,6.24
2022-12-01T04:20:29.168Z,6.33
2022-12-01T04:21:29.151Z,6.27
2022-12-01T04:23:33.112Z,6.27
2022-12-01T04:24:33.074Z,6.30
2022-12-01T04:26:37.022Z,6.24
2022-12-01T04:27:36.992Z,6.20
2022-12-01T04:29:40.932Z,6.17
2022-12-01T04:30:40.906Z,6.22
2022-12-01T04:32:44.849Z,6.26
2022-12-01T04:33:44.826Z,6.26
2022-12-01T04:35:48.755Z,6.17
2022-12-01T04:36:48.744Z,6.17
2022-12-01T04:38:52.685Z,6.24
2022-12-01T04:39:52.828Z,6.22
2022-12-01T04:41:56.599Z,6.14
2022-12-01T04:42:56.578Z,6.17
2022-12-01T04:44:49.440Z,6.11
2022-12-01T04:45:49.434Z,6.08
2022-12-01T04:47:53.366Z,5.97
2022-12-01T04:48:53.348Z,6.01
2022-12-01T04:50:57.281Z,6.02
2022-12-01T04:51:57.263Z,6.01
2022-12-01T04:54:01.210Z,5.94
2022-12-01T04:55:01.183Z,5.98
2022-12-01T04:57:05.125Z,6.05
2022-12-01T04:58:05.108Z,6.02
2022-12-01T05:00:09.046Z,5.97
2022-12-01T05:01:09.144Z,6.01
2022-12-01T05:03:15.245Z,5.87
2022-12-01T05:04:12.939Z,5.93
2022-12-01T05:06:16.876Z,5.93
2022-12-01T05:07:16.855Z,5.90
2022-12-01T05:09:20.800Z,5.82
2022-12-01T05:10:20.779Z,5.75
2022-12-01T05:12:24.726Z,5.87
2022-12-01T05:13:24.698Z,5.79
2022-12-01T05:15:28.631Z,5.76
2022-12-01T05:16:28.645Z,5.75
2022-12-01T05:18:32.662Z,5.73
2022-12-01T05:19:32.537Z,5.76
2022-12-01T05:21:36.469Z,5.80
2022-12-01T05:23:03.706Z,5.73
2022-12-01T05:24:29.324Z,5.79
2022-12-01T05:25:29.299Z,5.76
2022-12-01T05:27:33.233Z,5.69
2022-12-01T05:28:33.221Z,5.79
2022-12-01T05:30:37.158Z,5.73
2022-12-01T05:31:37.187Z,5.72
2022-12-01T05:33:41.077Z,5.72
2022-12-01T05:34:41.047Z,5.75
2022-12-01T05:36:44.983Z,5.68
2022-12-01T05:37:44.968Z,5.68
2022-12-01T05:39:49.112Z,5.69
2022-12-01T05:40:48.887Z,5.72
2022-12-01T05:42:52.826Z,5.75
2022-12-01T05:43:52.803Z,5.75
2022-12-01T05:45:56.801Z,5.73
2022-12-01T05:46:56.726Z,5.69
2022-12-01T05:49:00.670Z,5.68
2022-12-01T05:50:05.144Z,5.75
2022-12-01T05:52:04.807Z,5.73
2022-12-01T05:53:04.558Z,5.75
2022-12-01T05:54:57.433Z,5.72
2022-12-01T05:55:57.410Z,5.68
2022-12-01T05:58:01.346Z,5.66
2022-12-01T05:59:01.325Z,5.75
2022-12-01T06:01:05.269Z,5.71
2022-12-01T06:02:05.286Z,5.68
2022-12-01T06:04:09.231Z,5.68
2022-12-01T06:05:09.182Z,5.66
2022-12-01T06:07:13.098Z,5.72
2022-12-01T06:08:13.085Z,5.69
2022-12-01T06:10:17.073Z,5.66
2022-12-01T06:11:17.049Z,5.65
2022-12-01T06:13:10.115Z,5.69
2022-12-01T06:14:10.090Z,5.69
2022-12-01T06:16:14.072Z,5.71
2022-12-01T06:17:14.009Z,5.68
2022-12-01T06:19:17.943Z,5.72
2022-12-01T06:20:17.928Z,5.69
2022-12-01T06:22:21.880Z,5.71
2022-12-01T06:23:24.298Z,5.71
2022-12-01T06:25:14.715Z,5.68
2022-12-01T06:26:14.715Z,5.65
2022-12-01T06:28:18.709Z,5.76
2022-12-01T06:29:18.604Z,5.72
2022-12-01T06:31:22.594Z,5.66
2022-12-01T06:32:22.535Z,5.76
2022-12-01T06:34:15.393Z,5.66
2022-12-01T06:35:15.373Z,5.71
2022-12-01T06:37:19.296Z,5.72
2022-12-01T06:38:19.294Z,5.75
2022-12-01T06:40:23.808Z,5.71
2022-12-01T06:41:23.402Z,5.69
2022-12-01T06:43:27.343Z,5.69
2022-12-01T06:44:27.310Z,5.69
2022-12-01T06:46:31.306Z,5.68
2022-12-01T06:47:31.236Z,5.62
2022-12-01T06:49:35.179Z,5.57
2022-12-01T06:50:35.157Z,5.68
2022-12-01T06:52:39.094Z,5.71
2022-12-01T06:53:39.075Z,5.66
2022-12-01T06:55:43.020Z,5.66
2022-12-01T06:56:42.998Z,5.65
2022-12-01T06:58:46.937Z,5.66
2022-12-01T06:59:47.271Z,5.64
2022-12-01T07:01:50.937Z,5.53
2022-12-01T07:02:50.932Z,5.47
2022-12-01T07:04:43.702Z,5.51
2022-12-01T07:05:43.679Z,5.50
2022-12-01T07:07:47.630Z,5.54
2022-12-01T07:08:47.599Z,5.53
2022-12-01T07:10:51.548Z,5.48
2022-12-01T07:11:51.516Z,5.51
2022-12-01T07:13:55.478Z,5.54
2022-12-01T07:14:55.435Z,5.54
2022-12-01T07:16:59.450Z,5.51
2022-12-01T07:17:59.353Z,5.56
2022-12-01T07:20:03.297Z,5.64
2022-12-01T07:21:03.275Z,5.65
2022-12-01T07:23:07.421Z,5.65
2022-12-01T07:24:07.402Z,5.75
2022-12-01T07:26:11.349Z,5.75
2022-12-01T07:27:11.324Z,5.65
2022-12-01T07:29:15.265Z,5.68
2022-12-01T07:30:15.254Z,5.69
2022-12-01T07:32:19.759Z,5.59
2022-12-01T07:33:19.552Z,5.61
2022-12-01T07:35:12.457Z,5.54
2022-12-01T07:36:12.210Z,5.53
2022-12-01T07:38:21.793Z,5.59
2022-12-01T07:39:16.119Z,5.64
2022-12-01T07:41:20.063Z,5.57
2022-12-01T07:42:20.034Z,5.61
2022-12-01T07:44:24.559Z,5.62
2022-12-01T07:45:24.349Z,5.69
2022-12-01T07:47:28.082Z,5.68
2022-12-01T07:48:28.065Z,5.53
2022-12-01T07:50:32.007Z,5.46
2022-12-01T07:51:31.984Z,5.46
2022-12-01T07:53:35.923Z,5.46
2022-12-01T07:54:35.909Z,5.43
2022-12-01T07:56:39.850Z,5.43
2022-12-01T07:57:39.828Z,5.43
2022-12-01T07:59:43.777Z,5.41
2022-12-01T08:00:43.745Z,5.38
2022-12-01T08:02:47.709Z,5.44
2022-12-01T08:03:47.669Z,5.46
2022-12-01T08:05:51.605Z,5.35
2022-12-01T08:06:51.572Z,5.41
2022-12-01T08:08:55.528Z,5.26
2022-12-01T08:09:55.498Z,5.36
2022-12-01T08:11:59.436Z,5.29
2022-12-01T08:12:59.417Z,5.47
2022-12-01T08:14:52.292Z,5.33
2022-12-01T08:15:52.293Z,5.33
2022-12-01T08:17:56.201Z,5.29
2022-12-01T08:18:56.186Z,5.33
2022-12-01T08:21:00.127Z,5.36
2022-12-01T08:22:00.102Z,5.28
2022-12-01T08:24:04.046Z,5.35
2022-12-01T08:25:04.020Z,5.30
2022-12-01T08:27:07.958Z,5.33
2022-12-01T08:28:07.933Z,5.39
2022-12-01T08:30:11.881Z,5.38
2022-12-01T08:31:11.910Z,5.41
2022-12-01T08:33:15.791Z,5.36
2022-12-01T08:34:15.773Z,5.47
2022-12-01T08:36:19.714Z,5.41
2022-12-01T08:37:19.688Z,5.46
2022-12-01T08:39:23.634Z,5.41
2022-12-01T08:40:23.606Z,5.41
2022-12-01T08:42:27.563Z,5.53
2022-12-01T08:43:55.899Z,5.47
2022-12-01T08:45:31.471Z,5.43
2022-12-01T08:46:31.528Z,5.48
2022-12-01T08:48:35.396Z,5.47
2022-12-01T08:49:35.373Z,5.50
2022-12-01T08:51:39.306Z,5.56
2022-12-01T08:52:39.290Z,5.56
2022-12-01T08:54:32.359Z,5.48
2022-12-01T08:55:32.327Z,5.53
2022-12-01T08:57:25.242Z,5.65
2022-12-01T08:58:25.214Z,5.57
2022-12-01T09:00:29.164Z,5.48
2022-12-01T09:01:29.202Z,5.56
2022-12-01T09:03:33.077Z,5.51
2022-12-01T09:04:33.072Z,5.50
2022-12-01T09:06:36.994Z,5.57
2022-12-01T09:07:37.040Z,5.66
2022-12-01T09:09:40.924Z,5.75
2022-12-01T09:10:40.892Z,5.73
2022-12-01T09:12:44.841Z,5.75
2022-12-01T09:13:46.785Z,5.71
2022-12-01T09:15:37.687Z,5.76
2022-12-01T09:16:37.760Z,5.73
2022-12-01T09:18:41.610Z,5.87
2022-12-01T09:19:41.584Z,5.91
2022-12-01T09:21:45.556Z,6.01
2022-12-01T09:22:45.539Z,5.91
2022-12-01T09:24:38.412Z,5.93
2022-12-01T09:25:38.388Z,5.93
2022-12-01T09:27:42.348Z,5.91
2022-12-01T09:28:42.306Z,5.97
2022-12-01T09:30:46.246Z,6.04
2022-12-01T09:31:46.260Z,6.04
2022-12-01T09:33:50.170Z,5.97
2022-12-01T09:34:50.156Z,6.04
2022-12-01T09:36:54.085Z,5.93
2022-12-01T09:37:54.087Z,5.97
2022-12-01T09:39:58.012Z,5.91
2022-12-01T09:40:57.997Z,6.02
2022-12-01T09:43:01.931Z,6.11
2022-12-01T09:44:01.915Z,6.12
2022-12-01T09:45:01.914Z,6.19
2022-12-01T09:46:01.893Z,6.12
2022-12-01T09:47:01.952Z,6.11
2022-12-01T09:48:01.873Z,6.07
2022-12-01T09:49:01.855Z,6.12
2022-12-01T09:50:01.845Z,6.19
2022-12-01T09:51:01.839Z,6.20
2022-12-01T09:52:01.821Z,6.27
2022-12-01T09:53:01.810Z,6.19
2022-12-01T09:54:01.791Z,6.28
2022-12-01T09:55:01.802Z,6.27
2022-12-01T09:56:08.579Z,6.28
2022-12-01T09:57:01.764Z,6.30
2022-12-01T09:58:01.749Z,6.31
2022-12-01T09:59:01.735Z,6.31
2022-12-01T10:00:01.725Z,6.26
2022-12-01T10:01:01.744Z,6.36
2022-12-01T10:02:01.731Z,6.45
2022-12-01T10:03:01.687Z,6.39
2022-12-01T10:04:01.673Z,6.41
2022-12-01T10:05:01.717Z,6.45
2022-12-01T10:07:01.639Z,6.44
2022-12-01T10:08:01.678Z,6.31
2022-12-01T10:09:01.612Z,6.35
2022-12-01T10:10:01.616Z,6.31
2022-12-01T10:11:01.591Z,6.39
2022-12-01T10:12:01.578Z,6.42
2022-12-01T10:13:01.567Z,6.44
2022-12-01T10:14:01.550Z,6.48
2022-12-01T10:15:01.542Z,6.48
2022-12-01T10:16:01.643Z,6.46
2022-12-01T10:17:01.523Z,6.46
2022-12-01T10:18:01.507Z,6.52
2022-12-01T10:19:01.492Z,6.52
2022-12-01T10:20:01.481Z,6.64
2022-12-01T10:21:01.471Z,6.54
2022-12-01T10:22:01.461Z,6.51
2022-12-01T10:23:01.448Z,6.51
2022-12-01T10:24:01.431Z,6.45
2022-12-01T10:25:01.426Z,6.60
2022-12-01T10:26:01.411Z,6.63
2022-12-01T10:27:01.399Z,6.64
2022-12-01T10:28:01.385Z,6.54
2022-12-01T10:29:01.373Z,6.51
2022-12-01T10:30:01.361Z,6.72
2022-12-01T10:31:01.351Z,6.70
2022-12-01T10:32:01.402Z,6.81
2022-12-01T10:33:01.327Z,6.87
2022-12-01T10:34:01.316Z,6.78
2022-12-01T10:35:01.305Z,6.89
2022-12-01T10:36:01.297Z,6.97
2022-12-01T10:37:01.281Z,7.02
2022-12-01T10:38:01.345Z,7.00
2022-12-01T10:39:01.254Z,7.05
2022-12-01T10:40:01.244Z,7.02
2022-12-01T10:41:01.223Z,7.02
2022-12-01T10:42:01.218Z,6.99
2022-12-01T10:43:01.212Z,6.93
2022-12-01T10:44:01.194Z,6.88
2022-12-01T10:45:01.189Z,7.00
2022-12-01T10:46:01.187Z,6.99
2022-12-01T10:47:01.162Z,7.03
2022-12-01T10:48:01.146Z,7.02
2022-12-01T10:49:01.146Z,7.03
2022-12-01T10:50:01.125Z,7.02
2022-12-01T10:51:01.114Z,7.06
2022-12-01T10:52:01.105Z,7.03
2022-12-01T10:53:01.090Z,7.07
2022-12-01T10:54:01.078Z,7.05
2022-12-01T10:55:01.065Z,7.05
2022-12-01T10:56:01.064Z,6.99
2022-12-01T10:57:01.046Z,7.02
2022-12-01T10:58:06.220Z,7.00
2022-12-01T10:59:01.020Z,7.02
2022-12-01T11:00:01.009Z,7.05
2022-12-01T11:01:01.399Z,7.02
2022-12-01T11:02:01.168Z,6.87
2022-12-01T11:03:01.077Z,6.89
2022-12-01T11:04:00.988Z,6.92
2022-12-01T11:05:00.957Z,6.85
2022-12-01T11:06:00.936Z,6.93
2022-12-01T11:07:00.928Z,6.93
2022-12-01T11:08:00.970Z,7.00
2022-12-01T11:09:00.902Z,6.96
2022-12-01T11:10:00.892Z,6.75
2022-12-01T11:11:00.881Z,6.82
2022-12-01T11:12:00.863Z,6.88
2022-12-01T11:13:00.879Z,6.88
2022-12-01T11:14:00.842Z,6.89
2022-12-01T11:15:00.834Z,6.85
2022-12-01T11:16:00.825Z,6.81
2022-12-01T11:17:00.895Z,6.88
2022-12-01T11:18:00.794Z,6.87
2022-12-01T11:19:00.817Z,6.78
2022-12-01T11:20:00.821Z,6.79
2022-12-01T11:21:00.778Z,6.75
2022-12-01T11:22:00.752Z,6.67
2022-12-01T11:23:00.746Z,6.70
2022-12-01T11:24:00.726Z,6.72
2022-12-01T11:25:00.725Z,6.70
2022-12-01T11:26:00.711Z,6.66
2022-12-01T11:27:00.709Z,6.66
2022-12-01T11:28:00.682Z,6.56
2022-12-01T11:29:00.667Z,6.69
2022-12-01T11:30:00.667Z,6.57
2022-12-01T11:31:00.645Z,6.62
2022-12-01T11:32:00.734Z,6.66
2022-12-01T11:33:00.624Z,6.60
2022-12-01T11:34:00.611Z,6.49
2022-12-01T11:35:00.600Z,6.59
2022-12-01T11:36:00.591Z,6.57
2022-12-01T11:37:00.580Z,6.59
2022-12-01T11:38:28.254Z,6.62
2022-12-01T11:39:00.552Z,6.59
2022-12-01T11:40:00.543Z,6.67
2022-12-01T11:41:00.532Z,6.57
2022-12-01T11:42:00.520Z,6.62
2022-12-01T11:43:00.509Z,6.64
2022-12-01T11:44:01.735Z,6.54
2022-12-01T11:45:00.479Z,6.57
2022-12-01T11:46:00.618Z,6.54
2022-12-01T11:47:21.461Z,6.57
2022-12-01T11:48:00.446Z,6.56
2022-12-01T11:49:00.434Z,6.62
2022-12-01T11:50:00.423Z,6.63
2022-12-01T11:51:00.411Z,6.60
2022-12-01T11:52:00.405Z,6.59
2022-12-01T11:53:00.401Z,6.48
2022-12-01T11:54:00.374Z,6.45
2022-12-01T11:55:02.334Z,6.44
2022-12-01T11:56:00.353Z,6.62
2022-12-01T11:57:25.818Z,6.60
2022-12-01T11:58:00.326Z,6.56
2022-12-01T11:59:00.316Z,6.57
2022-12-01T12:00:00.306Z,6.62
2022-12-01T12:01:00.295Z,6.57
2022-12-01T12:02:00.351Z,6.57
2022-12-01T12:03:00.947Z,6.60
2022-12-01T12:04:00.256Z,6.42
2022-12-01T12:05:00.248Z,6.56
2022-12-01T12:06:17.866Z,6.49
2022-12-01T12:07:00.220Z,6.60
2022-12-01T12:08:00.262Z,6.57
2022-12-01T12:09:00.260Z,6.54
2022-12-01T12:10:00.186Z,6.64
2022-12-01T12:11:00.206Z,6.72
2022-12-01T12:12:00.164Z,6.72
2022-12-01T12:13:00.150Z,6.79
2022-12-01T12:14:00.137Z,6.82
2022-12-01T12:15:00.137Z,6.87
2022-12-01T12:16:00.122Z,6.81
2022-12-01T12:17:00.102Z,6.87
2022-12-01T12:18:00.153Z,6.81
2022-12-01T12:19:00.073Z,6.79
2022-12-01T12:20:07.637Z,6.85
2022-12-01T12:21:00.053Z,6.89
2022-12-01T12:22:00.041Z,6.82
2022-12-01T12:23:00.032Z,6.88
2022-12-01T12:24:00.019Z,6.85
2022-12-01T12:25:00.013Z,6.85
2022-12-01T12:25:59.997Z,6.88
2022-12-01T12:26:59.987Z,6.79
2022-12-01T12:27:59.969Z,6.84
2022-12-01T12:28:59.960Z,6.92
2022-12-01T12:29:59.951Z,6.89
2022-12-01T12:30:59.980Z,6.92
2022-12-01T12:31:59.924Z,6.88
2022-12-01T12:32:59.914Z,6.92
2022-12-01T12:33:59.908Z,6.96
2022-12-01T12:34:59.892Z,6.88
2022-12-01T12:35:59.879Z,6.97
2022-12-01T12:36:59.869Z,6.95
2022-12-01T12:37:59.854Z,6.97
2022-12-01T12:38:59.845Z,6.96
2022-12-01T12:39:59.840Z,7.03
2022-12-01T12:40:59.818Z,6.96
2022-12-01T12:41:59.808Z,6.97
2022-12-01T12:42:59.798Z,6.99
2022-12-01T12:43:59.785Z,6.93
2022-12-01T12:44:59.774Z,7.03
2022-12-01T12:45:59.821Z,7.05
2022-12-01T12:46:59.747Z,7.03
2022-12-01T12:47:59.737Z,6.99
2022-12-01T12:49:59.713Z,7.10
2022-12-01T12:50:59.702Z,7.02
2022-12-01T12:52:05.075Z,6.99
2022-12-01T12:52:59.679Z,7.00
2022-12-01T12:53:59.775Z,7.06
2022-12-01T12:54:59.653Z,7.05
2022-12-01T12:55:59.645Z,7.11
2022-12-01T12:56:59.659Z,7.13
2022-12-01T12:57:59.621Z,7.17
2022-12-01T12:58:59.607Z,7.14
2022-12-01T12:59:59.594Z,7.17
2022-12-01T13:00:59.585Z,7.11
2022-12-01T13:01:59.652Z,7.13
2022-12-01T13:02:59.634Z,7.03
2022-12-01T13:03:59.544Z,7.13
2022-12-01T13:04:59.558Z,7.11
2022-12-01T13:05:59.523Z,7.11
2022-12-01T13:06:59.580Z,7.10
2022-12-01T13:07:59.552Z,7.11
2022-12-01T13:08:59.490Z,7.07
2022-12-01T13:10:00.933Z,6.97
2022-12-01T13:10:59.475Z,7.02
2022-12-01T13:11:59.455Z,6.99
2022-12-01T13:12:59.440Z,7.05
2022-12-01T13:13:59.607Z,7.02
2022-12-01T13:15:01.238Z,7.07
2022-12-01T13:15:59.492Z,7.14
2022-12-01T13:16:59.397Z,7.02
2022-12-01T13:17:59.388Z,6.99
2022-12-01T13:18:59.370Z,6.99
2022-12-01T13:19:59.363Z,6.97
2022-12-01T13:20:59.351Z,6.99
2022-12-01T13:21:59.408Z,6.97
2022-12-01T13:22:59.321Z,6.97
2022-12-01T13:23:59.312Z,7.00
2022-12-01T13:24:59.304Z,7.03
2022-12-01T13:25:59.292Z,7.02
2022-12-01T13:26:59.328Z,6.95
2022-12-01T13:27:59.268Z,6.93
2022-12-01T13:28:59.268Z,7.00
2022-12-01T13:29:59.248Z,7.00
2022-12-01T13:30:59.308Z,7.00
2022-12-01T13:31:59.220Z,6.97
2022-12-01T13:32:59.209Z,7.00
2022-12-01T13:33:59.199Z,7.06
2022-12-01T13:34:59.176Z,7.00
2022-12-01T13:36:23.034Z,7.00
2022-12-01T13:36:59.156Z,7.03
2022-12-01T13:37:59.151Z,7.06
2022-12-01T13:38:59.134Z,7.06
2022-12-01T13:39:59.156Z,7.13
2022-12-01T13:40:59.119Z,7.02
2022-12-01T13:41:59.114Z,7.10
2022-12-01T13:42:59.091Z,7.13
2022-12-01T13:43:59.142Z,7.06
2022-12-01T13:44:59.068Z,7.14
2022-12-01T13:45:59.058Z,7.11
2022-12-01T13:46:59.116Z,7.07
2022-12-01T13:47:59.035Z,7.13
2022-12-01T13:48:59.021Z,7.11
2022-12-01T13:49:59.011Z,7.15
2022-12-01T13:50:58.999Z,7.05
2022-12-01T13:51:58.977Z,7.13
2022-12-01T13:52:58.976Z,7.03
2022-12-01T13:53:58.972Z,7.05
2022-12-01T13:54:58.951Z,7.11
2022-12-01T13:55:58.946Z,7.10
2022-12-01T13:56:58.925Z,7.14
2022-12-01T13:57:58.913Z,7.07
2022-12-01T13:58:58.930Z,7.15
2022-12-01T13:59:58.938Z,7.07
2022-12-01T14:00:58.926Z,7.03
2022-12-01T14:01:58.899Z,7.11
2022-12-01T14:02:58.882Z,7.11
2022-12-01T14:03:58.843Z,7.18
2022-12-01T14:04:58.832Z,7.11
2022-12-01T14:05:58.821Z,7.20
2022-12-01T14:06:58.825Z,7.10
2022-12-01T14:07:58.862Z,7.02
2022-12-01T14:08:58.782Z,7.07
2022-12-01T14:09:58.771Z,7.06
2022-12-01T14:10:58.770Z,7.13
2022-12-01T14:11:58.750Z,7.11
2022-12-01T14:12:58.737Z,7.10
2022-12-01T14:13:58.723Z,7.10
2022-12-01T14:14:59.165Z,7.03
2022-12-01T14:15:58.801Z,6.92
2022-12-01T14:16:58.711Z,6.96
2022-12-01T14:17:58.680Z,6.84
2022-12-01T14:18:58.665Z,6.85
2022-12-01T14:19:58.673Z,6.92
2022-12-01T14:20:58.659Z,6.88
2022-12-01T14:21:58.633Z,6.82
2022-12-01T14:22:58.620Z,6.84
2022-12-01T14:23:58.608Z,6.81
2022-12-01T14:24:58.596Z,6.93
2022-12-01T14:25:58.583Z,6.95
2022-12-01T14:26:58.582Z,6.84
2022-12-01T14:27:58.561Z,6.93
2022-12-01T14:28:58.544Z,6.84
2022-12-01T14:29:58.537Z,6.81
2022-12-01T14:30:58.566Z,6.75
2022-12-01T14:31:58.512Z,6.70
2022-12-01T14:32:58.523Z,6.66
2022-12-01T14:33:58.492Z,6.60
2022-12-01T14:34:58.472Z,6.63
2022-12-01T14:35:58.467Z,6.63
2022-12-01T14:36:58.454Z,6.60
2022-12-01T14:37:58.442Z,6.59
2022-12-01T14:38:58.425Z,6.48
2022-12-01T14:39:58.450Z,6.41
2022-12-01T14:40:58.402Z,6.42
2022-12-01T14:41:58.399Z,6.45
2022-12-01T14:42:58.404Z,6.44
2022-12-01T14:43:58.368Z,6.33
2022-12-01T14:44:58.384Z,6.38
2022-12-01T14:45:58.366Z,6.36
2022-12-01T14:46:58.392Z,6.36
2022-12-01T14:47:58.322Z,6.35
2022-12-01T14:48:58.307Z,6.31
2022-12-01T14:49:58.298Z,6.28
2022-12-01T14:50:58.285Z,6.35
2022-12-01T14:51:58.274Z,6.33
2022-12-01T14:52:58.282Z,6.42
2022-12-01T14:53:58.254Z,6.41
2022-12-01T14:54:58.240Z,6.38
2022-12-01T14:55:58.228Z,6.39
2022-12-01T14:57:02.715Z,6.45
2022-12-01T14:57:58.219Z,6.42
2022-12-01T14:58:58.200Z,6.46
2022-12-01T14:59:58.183Z,6.45
2022-12-01T15:00:58.230Z,6.51
2022-12-01T15:01:58.341Z,6.44
2022-12-01T15:02:58.140Z,6.46
2022-12-01T15:03:58.127Z,6.56
2022-12-01T15:04:58.116Z,6.51
2022-12-01T15:05:58.107Z,6.60
2022-12-01T15:06:58.089Z,6.52
2022-12-01T15:08:12.615Z,6.60
2022-12-01T15:09:25.157Z,6.51
2022-12-01T15:09:58.056Z,6.54
2022-12-01T15:10:58.044Z,6.52
2022-12-01T15:11:58.032Z,6.51
2022-12-01T15:12:58.021Z,6.51
2022-12-01T15:13:58.008Z,6.46
2022-12-01T15:14:57.997Z,6.45
2022-12-01T15:15:58.099Z,6.41
2022-12-01T15:16:58.009Z,6.39
2022-12-01T15:17:57.959Z,6.44
2022-12-01T15:18:57.941Z,6.33
2022-12-01T15:19:57.936Z,6.33
2022-12-01T15:20:57.924Z,6.30
2022-12-01T15:21:57.905Z,6.35
2022-12-01T15:22:57.900Z,6.36
2022-12-01T15:23:57.879Z,6.30
2022-12-01T15:24:57.876Z,6.38
2022-12-01T15:25:57.864Z,6.33
2022-12-01T15:27:03.272Z,6.28
2022-12-01T15:27:57.838Z,6.26
2022-12-01T15:28:57.831Z,6.16
2022-12-01T15:29:57.815Z,6.26
2022-12-01T15:30:57.802Z,6.11
2022-12-01T15:31:57.801Z,6.22
2022-12-01T15:32:57.780Z,6.22
2022-12-01T15:33:57.767Z,6.14
2022-12-01T15:34:57.752Z,6.17
2022-12-01T15:35:57.743Z,6.07
2022-12-01T15:36:57.728Z,5.99
2022-12-01T15:37:57.717Z,6.07
2022-12-01T15:39:00.988Z,6.05
2022-12-01T15:40:11.971Z,6.01
2022-12-01T15:41:57.675Z,5.94
2022-12-01T15:42:57.650Z,6.07